Putnamville, IN

3:30 PM EST on January 29, 2015 (GMT -0500)
Monroe County | Change Station
CLOSE
Current Station
Airport
Location: Bloomington,
Elevation: 846 ft
Nearby Weather Stations

Elev 846 ft 39.15 °N, 86.62 °W | Updated 37 minutes ago

Overcast
Overcast
35 °F
Feels Like 26 °F
N
13
Wind Variable Wind from WNW
Gusts 29 mph

Today
High -- | Low -- °F
--% Chance of Precip.
Yesterday
High -- | Low -- °F
Precip. -- in
7:57 AM 6:03 PM
Waxing Gibbous, 77% visible
Pressure 30.02 in
Visibility 4.0 miles
Clouds Overcast 1000 ft
Windchill 26 °F
Dew Point 32 °F
Humidity 89%
Rainfall 0.00 in
Snow Depth Not available.
UV 1 out of 12
Pollen .40 out of 12
Air Quality Not available.
Flu Activity Not available.
METAR KBMG 291953Z 29011G25KT 4SM -RA BR OVC010 02/00 A3000 RMK AO2 PK WND 30026/1930 RAB47 CIG 009V014 SLP165 P0000 T00170000

More Conditions Fewer Conditions

Pressure 30.02 in
Visibility 4.0 miles
Clouds Overcast 1000 ft
Windchill 26 °F
Dew Point 32 °F
Humidity 89%
Rainfall 0.00 in
Snow Depth Not available.
UV 1 out of 12
Pollen .40 out of 12
Air Quality Not available.
Flu Activity Not available.
METAR KBMG 291953Z 29011G25KT 4SM -RA BR OVC010 02/00 A3000 RMK AO2 PK WND 30026/1930 RAB47 CIG 009V014 SLP165 P0000 T00170000

More Conditions Fewer Conditions

10-Day Weather Forecast

Almanac

Astronomy

Jan. 29, 2015 Rise Set
Actual Time
Civil Twilight
Nautical Twilight
Astronomical Twilight
Moon
Length of Visible Light
Length of Day
Tomorrow will be .
, % of the Moon is Illuminated

Today's Extremes

State Highs State Lows

Community

WunderPhotos

Upload Photos

1,791,584 photos uploaded!

WunderBlogs® & News

Nearby

Air Quality

  Air Quality AQ Index Pollutant
Not available.

Snow Depth

Station Depth Elevation

Earthquake Activity

City Distance Mag. Time & Date
Minimum magnitude displayed is 2.5.

Coastal Water Temperatures

Place Temperature

Nearby Weather Stations